createdAt,value
2018-09-09T00:00:13.624Z,5.53
2018-09-09T00:02:41.939Z,5.90
2018-09-09T00:05:10.190Z,9.03
2018-09-09T00:07:38.443Z,7.10
2018-09-09T00:10:07.122Z,5.57
2018-09-09T00:12:35.495Z,5.57
2018-09-09T00:15:03.877Z,6.07
2018-09-09T00:17:32.326Z,5.57
2018-09-09T00:20:00.791Z,4.80
2018-09-09T00:22:29.199Z,5.07
2018-09-09T00:24:57.560Z,4.90
2018-09-09T00:27:25.799Z,5.47
2018-09-09T00:29:54.074Z,4.90
2018-09-09T00:32:22.424Z,5.00
2018-09-09T00:34:50.771Z,5.43
2018-09-09T00:37:19.186Z,4.83
2018-09-09T00:39:47.446Z,4.70
2018-09-09T00:42:15.755Z,5.47
2018-09-09T00:44:44.085Z,5.60
2018-09-09T00:47:12.342Z,5.80
2018-09-09T00:49:45.895Z,6.27
2018-09-09T00:52:19.547Z,6.20
2018-09-09T00:54:47.817Z,5.03
2018-09-09T00:57:16.122Z,4.80
2018-09-09T00:59:44.442Z,5.10
2018-09-09T01:02:12.682Z,4.33
2018-09-09T01:04:40.947Z,4.30
2018-09-09T01:07:09.293Z,4.40
2018-09-09T01:09:37.590Z,5.47
2018-09-09T01:12:05.914Z,4.07
2018-09-09T01:14:34.709Z,4.60
2018-09-09T01:17:02.961Z,5.30
2018-09-09T01:19:31.211Z,4.90
2018-09-09T01:21:59.459Z,3.93
2018-09-09T01:24:27.712Z,4.77
2018-09-09T01:26:56.016Z,4.50
2018-09-09T01:29:24.291Z,4.70
2018-09-09T01:31:52.553Z,4.73
2018-09-09T01:34:20.802Z,5.37
2018-09-09T01:36:49.119Z,5.20
2018-09-09T01:39:17.358Z,5.00
2018-09-09T01:41:45.631Z,5.23
2018-09-09T01:44:13.940Z,5.07
2018-09-09T01:46:42.234Z,5.10
2018-09-09T01:49:10.500Z,5.90
2018-09-09T01:51:38.772Z,5.10
2018-09-09T01:54:07.221Z,5.30
2018-09-09T01:56:35.462Z,5.10
2018-09-09T01:59:03.790Z,5.23
2018-09-09T02:01:32.031Z,5.03
2018-09-09T02:04:00.274Z,6.00
2018-09-09T02:06:28.536Z,5.80
2018-09-09T02:08:56.808Z,6.20
2018-09-09T02:11:25.076Z,7.07
2018-09-09T02:13:53.344Z,6.80
2018-09-09T02:16:21.585Z,6.37
2018-09-09T02:18:49.848Z,6.97
2018-09-09T02:21:18.091Z,6.27
2018-09-09T02:23:46.315Z,5.67
2018-09-09T02:26:14.588Z,5.00
2018-09-09T02:28:42.847Z,5.67
2018-09-09T02:31:11.123Z,5.20
2018-09-09T02:33:39.366Z,5.33
2018-09-09T02:36:07.651Z,5.30
2018-09-09T02:38:35.904Z,5.53
2018-09-09T02:41:04.144Z,4.77
2018-09-09T02:43:32.430Z,5.20
2018-09-09T02:46:00.639Z,4.83
2018-09-09T02:48:28.894Z,4.40
2018-09-09T02:50:57.146Z,4.80
2018-09-09T02:53:25.413Z,4.10
2018-09-09T02:55:53.665Z,5.33
2018-09-09T02:58:21.903Z,5.10
2018-09-09T03:00:50.163Z,6.37
2018-09-09T03:03:18.400Z,4.57
2018-09-09T03:05:46.706Z,4.80
2018-09-09T03:08:14.959Z,4.97
2018-09-09T03:10:43.248Z,5.20
2018-09-09T03:13:11.536Z,4.73
2018-09-09T03:15:39.840Z,5.17
2018-09-09T03:18:08.070Z,5.33
2018-09-09T03:20:36.307Z,4.90
2018-09-09T03:23:04.542Z,5.17
2018-09-09T03:25:32.782Z,5.20
2018-09-09T03:28:01.049Z,5.00
2018-09-09T03:30:29.323Z,5.60
2018-09-09T03:32:57.595Z,5.53
2018-09-09T03:35:25.839Z,5.80
2018-09-09T03:37:54.103Z,5.37
2018-09-09T03:40:22.404Z,5.60
2018-09-09T03:42:50.677Z,4.50
2018-09-09T03:45:19.395Z,6.23
2018-09-09T03:47:47.831Z,5.70
2018-09-09T03:50:16.131Z,5.43
2018-09-09T03:52:44.451Z,5.57
2018-09-09T03:55:12.749Z,5.07
2018-09-09T03:57:41.035Z,4.93
2018-09-09T04:00:09.342Z,5.43
2018-09-09T04:02:37.627Z,4.57
2018-09-09T04:05:06.059Z,4.40
2018-09-09T04:07:34.390Z,5.13
2018-09-09T04:10:02.775Z,4.50
2018-09-09T04:12:30.992Z,4.87
2018-09-09T04:14:59.360Z,4.13
2018-09-09T04:17:27.635Z,5.13
2018-09-09T04:19:55.908Z,4.43
2018-09-09T04:22:24.188Z,5.10
2018-09-09T04:24:52.451Z,4.47
2018-09-09T04:27:20.736Z,5.17
2018-09-09T04:29:49.009Z,4.60
2018-09-09T04:32:17.279Z,4.37
2018-09-09T04:34:45.589Z,4.70
2018-09-09T04:37:13.867Z,4.40
2018-09-09T04:39:42.136Z,3.70
2018-09-09T04:42:10.440Z,4.00
2018-09-09T04:44:38.695Z,4.27
2018-09-09T04:47:06.959Z,4.47
2018-09-09T04:49:35.261Z,4.07
2018-09-09T04:52:03.519Z,4.47
2018-09-09T04:54:31.791Z,4.57
2018-09-09T04:57:00.088Z,3.80
2018-09-09T04:59:28.448Z,3.83
2018-09-09T05:01:56.743Z,3.67
2018-09-09T05:04:25.018Z,3.60
2018-09-09T05:06:53.278Z,3.50
2018-09-09T05:09:21.555Z,3.73
2018-09-09T05:11:49.839Z,3.70
2018-09-09T05:14:18.129Z,3.93
2018-09-09T05:16:46.420Z,4.47
2018-09-09T05:19:14.661Z,4.70
2018-09-09T05:21:42.967Z,4.40
2018-09-09T05:24:11.286Z,4.57
2018-09-09T05:26:39.535Z,4.63
2018-09-09T05:29:07.800Z,3.63
2018-09-09T05:31:36.067Z,4.17
2018-09-09T05:34:04.364Z,4.50
2018-09-09T05:36:32.639Z,4.17
2018-09-09T05:39:00.920Z,4.10
2018-09-09T05:41:29.236Z,3.07
2018-09-09T05:43:57.520Z,4.13
2018-09-09T05:46:25.831Z,3.30
2018-09-09T05:48:54.125Z,3.53
2018-09-09T05:51:22.394Z,4.00
2018-09-09T05:53:50.748Z,3.60
2018-09-09T05:56:18.998Z,3.50
2018-09-09T05:58:47.298Z,3.87
2018-09-09T06:01:15.570Z,4.20
2018-09-09T06:03:43.865Z,3.40
2018-09-09T06:06:12.224Z,3.60
2018-09-09T06:08:40.511Z,4.40
2018-09-09T06:11:08.799Z,4.10
2018-09-09T06:13:37.225Z,4.10
2018-09-09T06:16:05.640Z,3.77
2018-09-09T06:18:33.919Z,4.93
2018-09-09T06:21:02.252Z,4.53
2018-09-09T06:23:30.647Z,3.70
2018-09-09T06:25:58.976Z,4.03
2018-09-09T06:28:27.535Z,3.60
2018-09-09T06:30:56.252Z,3.67
2018-09-09T06:33:24.534Z,3.53
2018-09-09T06:35:52.815Z,3.80
2018-09-09T06:38:21.184Z,3.40
2018-09-09T06:40:49.612Z,4.30
2018-09-09T06:43:17.902Z,3.70
2018-09-09T06:45:46.187Z,4.10
2018-09-09T06:48:14.473Z,3.70
2018-09-09T06:50:42.750Z,3.60
2018-09-09T06:53:11.062Z,3.60
2018-09-09T06:55:39.334Z,3.57
2018-09-09T06:58:07.920Z,4.27
2018-09-09T07:00:36.179Z,3.50
2018-09-09T07:03:04.746Z,3.97
2018-09-09T07:05:33.020Z,3.50
2018-09-09T07:08:01.336Z,3.27
2018-09-09T07:10:29.627Z,4.03
2018-09-09T07:12:57.986Z,3.40
2018-09-09T07:15:26.281Z,3.97
2018-09-09T07:17:54.674Z,3.00
2018-09-09T07:20:22.994Z,3.53
2018-09-09T07:22:51.326Z,3.40
2018-09-09T07:25:19.674Z,4.00
2018-09-09T07:27:48.129Z,3.10
2018-09-09T07:30:16.430Z,2.93
2018-09-09T07:32:44.719Z,2.87
2018-09-09T07:35:13.187Z,3.30
2018-09-09T07:37:41.468Z,2.60
2018-09-09T07:40:09.847Z,3.70
2018-09-09T07:42:38.184Z,3.30
2018-09-09T07:45:06.500Z,3.10
2018-09-09T07:47:34.797Z,2.90
2018-09-09T07:50:03.091Z,2.83
2018-09-09T07:52:31.449Z,2.93
2018-09-09T07:54:59.792Z,3.17
2018-09-09T07:57:28.072Z,3.10
2018-09-09T07:59:56.329Z,3.17
2018-09-09T08:02:24.664Z,3.43
2018-09-09T08:04:52.970Z,3.10
2018-09-09T08:07:21.372Z,2.90
2018-09-09T08:09:49.778Z,3.40
2018-09-09T08:12:18.088Z,4.33
2018-09-09T08:14:46.441Z,3.00
2018-09-09T08:17:14.764Z,3.30
2018-09-09T08:19:43.035Z,2.73
2018-09-09T08:22:11.378Z,3.20
2018-09-09T08:24:40.040Z,3.27
2018-09-09T08:27:08.335Z,3.20
2018-09-09T08:29:36.780Z,3.03
2018-09-09T08:32:05.107Z,3.40
2018-09-09T08:34:33.419Z,3.00
2018-09-09T08:37:01.753Z,2.10
2018-09-09T08:39:30.115Z,2.60
2018-09-09T08:41:58.580Z,2.73
2018-09-09T08:44:26.878Z,2.60
2018-09-09T08:46:55.418Z,2.63
2018-09-09T08:49:25.082Z,3.57
2018-09-09T08:51:53.883Z,3.20
2018-09-09T08:54:22.254Z,2.50
2018-09-09T08:56:50.631Z,2.53
2018-09-09T08:59:18.933Z,2.50
2018-09-09T09:01:47.286Z,2.87
2018-09-09T09:04:15.635Z,2.47
2018-09-09T09:06:44.065Z,2.77
2018-09-09T09:09:15.320Z,2.77
2018-09-09T09:11:43.684Z,3.50
2018-09-09T09:14:12.163Z,2.73
2018-09-09T09:16:40.651Z,2.67
2018-09-09T09:19:09.009Z,2.70
2018-09-09T09:21:37.419Z,2.60
2018-09-09T09:24:05.997Z,2.60
2018-09-09T09:26:34.387Z,2.50
2018-09-09T09:29:02.667Z,2.20
2018-09-09T09:31:30.931Z,2.27
2018-09-09T09:33:59.325Z,2.30
2018-09-09T09:36:27.633Z,3.10
2018-09-09T09:38:55.991Z,2.57
2018-09-09T09:41:24.268Z,3.83
2018-09-09T09:43:53.702Z,2.47
2018-09-09T09:46:22.442Z,2.87
2018-09-09T09:48:50.675Z,2.50
2018-09-09T09:51:18.946Z,1.60
2018-09-09T09:53:47.183Z,2.03
2018-09-09T09:56:16.093Z,2.07
2018-09-09T09:58:44.423Z,2.23
2018-09-09T10:01:12.721Z,2.27
2018-09-09T10:03:41.088Z,2.40
2018-09-09T10:06:09.247Z,2.33
2018-09-09T10:08:39.564Z,2.10
2018-09-09T10:11:07.872Z,2.80
2018-09-09T10:13:36.138Z,2.43
2018-09-09T10:16:04.459Z,2.00
2018-09-09T10:18:32.723Z,2.60
2018-09-09T10:21:01.019Z,2.27
2018-09-09T10:23:29.285Z,2.00
2018-09-09T10:25:57.574Z,2.03
2018-09-09T10:28:25.825Z,1.83
2018-09-09T10:30:54.151Z,2.43
2018-09-09T10:33:22.659Z,1.80
2018-09-09T10:35:51.657Z,1.50
2018-09-09T10:38:21.543Z,1.80
2018-09-09T10:40:50.176Z,1.80
2018-09-09T10:43:19.257Z,1.57
2018-09-09T10:45:47.733Z,1.50
2018-09-09T10:48:16.048Z,1.30
2018-09-09T10:50:44.321Z,1.30
2018-09-09T10:53:12.720Z,1.50
2018-09-09T10:55:40.921Z,1.47
2018-09-09T10:58:09.367Z,1.63
2018-09-09T11:00:37.666Z,1.53
2018-09-09T11:03:05.962Z,1.40
2018-09-09T11:05:34.288Z,1.33
2018-09-09T11:08:02.575Z,1.57
2018-09-09T11:10:30.841Z,1.33
2018-09-09T11:12:59.202Z,1.43
2018-09-09T11:15:27.569Z,2.13
2018-09-09T11:17:56.907Z,1.43
2018-09-09T11:20:25.295Z,1.30
2018-09-09T11:22:53.579Z,1.57
2018-09-09T11:25:21.863Z,1.30
2018-09-09T11:27:50.121Z,1.60
2018-09-09T11:30:18.376Z,1.30
2018-09-09T11:32:48.518Z,1.50
2018-09-09T11:35:19.707Z,1.60
2018-09-09T11:37:47.970Z,1.40
2018-09-09T11:40:16.647Z,1.40
2018-09-09T11:42:45.491Z,1.63
2018-09-09T11:45:14.280Z,1.57
2018-09-09T11:47:42.788Z,1.37
2018-09-09T11:50:11.188Z,1.50
2018-09-09T11:52:39.909Z,1.20
2018-09-09T11:55:08.594Z,1.33
2018-09-09T11:57:37.065Z,1.70
2018-09-09T12:00:05.998Z,1.23
2018-09-09T12:02:34.567Z,1.60
2018-09-09T12:05:03.231Z,1.73
2018-09-09T12:07:31.788Z,1.77
2018-09-09T12:10:00.589Z,1.67
2018-09-09T12:12:28.945Z,1.27
2018-09-09T12:14:58.603Z,1.00
2018-09-09T12:17:28.827Z,1.33
2018-09-09T12:19:57.128Z,1.60
2018-09-09T12:22:25.419Z,1.30
2018-09-09T12:24:53.688Z,1.20
2018-09-09T12:27:22.637Z,1.20
2018-09-09T12:29:51.005Z,1.20
2018-09-09T12:32:19.419Z,0.93
2018-09-09T12:34:47.996Z,1.60
2018-09-09T12:37:16.339Z,1.30
2018-09-09T12:39:44.589Z,1.20
2018-09-09T12:42:14.967Z,1.00
2018-09-09T12:44:48.466Z,1.20
2018-09-09T12:50:21.248Z,1.20
2018-09-09T12:52:49.668Z,0.90
2018-09-09T12:55:18.166Z,1.20
2018-09-09T12:57:46.686Z,1.10
2018-09-09T13:00:15.329Z,1.07
2018-09-09T13:02:43.844Z,1.10
2018-09-09T13:05:12.272Z,1.00
2018-09-09T13:07:40.588Z,1.97
2018-09-09T13:10:08.922Z,1.17
2018-09-09T13:12:42.486Z,1.40
2018-09-09T13:15:10.981Z,1.10
2018-09-09T13:17:39.472Z,1.73
2018-09-09T13:20:08.000Z,1.30
2018-09-09T13:36:03.779Z,1.40
2018-09-09T13:38:32.585Z,1.07
2018-09-09T13:41:01.370Z,1.57
2018-09-09T13:43:29.687Z,1.40
2018-09-09T13:45:58.248Z,1.30
2018-09-09T13:48:28.211Z,1.30
2018-09-09T13:50:56.548Z,1.03
2018-09-09T13:53:25.079Z,1.17
2018-09-09T13:56:01.421Z,1.10
2018-09-09T13:58:29.965Z,1.27
2018-09-09T14:00:58.548Z,1.63
2018-09-09T14:03:27.286Z,1.10
2018-09-09T14:05:55.795Z,1.40
2018-09-09T14:08:24.039Z,1.20
2018-09-09T14:10:52.295Z,1.30
2018-09-09T14:13:20.539Z,1.77
2018-09-09T14:15:48.835Z,0.97
2018-09-09T14:18:17.121Z,1.30
2018-09-09T14:20:45.480Z,1.30
2018-09-09T14:23:13.746Z,1.43
2018-09-09T14:25:42.101Z,1.40
2018-09-09T14:28:10.376Z,0.83
2018-09-09T14:30:38.631Z,1.13
2018-09-09T14:33:06.870Z,0.87
2018-09-09T14:35:35.439Z,1.13
2018-09-09T14:38:03.830Z,1.00
2018-09-09T14:40:32.207Z,1.27
2018-09-09T14:43:00.372Z,1.30
2018-09-09T14:45:28.636Z,1.20
2018-09-09T14:47:56.953Z,1.20
2018-09-09T14:50:25.305Z,1.27
2018-09-09T14:52:53.566Z,1.07
2018-09-09T14:55:21.807Z,1.47
2018-09-09T14:57:50.059Z,1.40
2018-09-09T15:00:18.367Z,1.40
2018-09-09T15:02:46.601Z,1.20
2018-09-09T15:05:14.848Z,1.40
2018-09-09T15:07:43.120Z,2.10
2018-09-09T15:10:11.595Z,1.63
2018-09-09T15:12:39.899Z,1.17
2018-09-09T15:15:08.149Z,1.27
2018-09-09T15:17:36.428Z,1.00
2018-09-09T15:20:04.717Z,1.30
2018-09-09T15:22:32.990Z,1.40
2018-09-09T15:25:01.242Z,1.00
2018-09-09T15:27:29.479Z,1.27
2018-09-09T15:29:57.763Z,4.27
2018-09-09T15:32:26.048Z,1.43
2018-09-09T15:34:54.303Z,1.57
2018-09-09T15:37:22.552Z,1.17
2018-09-09T15:39:50.888Z,2.60
2018-09-09T15:42:19.211Z,1.30
2018-09-09T15:44:47.550Z,0.83
2018-09-09T15:47:15.910Z,1.30
2018-09-09T15:49:44.190Z,1.43
2018-09-09T15:52:12.504Z,1.13
2018-09-09T15:54:40.766Z,1.30
2018-09-09T15:57:09.032Z,1.20
2018-09-09T15:59:37.309Z,1.40
2018-09-09T16:02:05.644Z,0.90
2018-09-09T16:04:33.904Z,1.40
2018-09-09T16:07:03.191Z,1.00
2018-09-09T16:09:31.515Z,1.20
2018-09-09T16:11:59.770Z,1.73
2018-09-09T16:14:28.048Z,1.43
2018-09-09T16:16:56.276Z,1.60
2018-09-09T16:19:24.514Z,0.90
2018-09-09T16:21:52.800Z,1.20
2018-09-09T16:24:21.080Z,1.40
2018-09-09T16:26:49.307Z,1.23
2018-09-09T16:29:17.691Z,1.37
2018-09-09T16:31:45.964Z,1.10
2018-09-09T16:34:14.291Z,1.73
2018-09-09T16:36:42.562Z,1.77
2018-09-09T16:39:10.836Z,1.40
2018-09-09T16:41:39.087Z,1.80
2018-09-09T16:44:07.441Z,1.70
2018-09-09T16:46:35.756Z,1.83
2018-09-09T16:49:03.962Z,1.30
2018-09-09T16:51:32.287Z,1.57
2018-09-09T16:54:00.548Z,1.93
2018-09-09T16:56:28.795Z,1.67
2018-09-09T16:58:57.039Z,2.20
2018-09-09T17:01:25.376Z,1.67
2018-09-09T17:03:53.600Z,1.80
2018-09-09T17:06:21.885Z,1.20
2018-09-09T17:08:50.150Z,1.97
2018-09-09T17:11:18.427Z,1.67
2018-09-09T17:13:46.704Z,2.30
2018-09-09T17:16:16.999Z,1.63
2018-09-09T17:18:45.269Z,1.73
2018-09-09T17:21:13.552Z,1.43
2018-09-09T17:23:41.820Z,1.70
2018-09-09T17:26:10.076Z,1.53
2018-09-09T17:28:38.343Z,1.73
2018-09-09T17:31:06.583Z,1.27
2018-09-09T17:33:34.838Z,1.57
2018-09-09T17:36:03.122Z,1.67
2018-09-09T17:38:32.408Z,2.13
2018-09-09T17:41:00.907Z,2.33
2018-09-09T17:43:29.207Z,2.03
2018-09-09T17:45:58.574Z,1.40
2018-09-09T17:48:26.943Z,1.63
2018-09-09T17:50:55.191Z,1.37
2018-09-09T17:53:23.510Z,1.87
2018-09-09T17:55:51.785Z,1.70
2018-09-09T17:58:20.099Z,1.50
2018-09-09T18:00:48.376Z,1.63
2018-09-09T18:03:16.656Z,1.60
2018-09-09T18:05:44.923Z,2.30
2018-09-09T18:08:13.211Z,2.30
2018-09-09T18:10:41.462Z,1.80
2018-09-09T18:13:09.706Z,1.80
2018-09-09T18:15:38.002Z,2.10
2018-09-09T18:18:06.286Z,2.30
2018-09-09T18:20:34.571Z,2.00
2018-09-09T18:23:02.816Z,2.00
2018-09-09T18:25:31.079Z,2.23
2018-09-09T18:27:59.508Z,1.97
2018-09-09T18:30:27.783Z,2.00
2018-09-09T18:32:56.064Z,1.47
2018-09-09T18:35:24.329Z,1.73
2018-09-09T18:37:52.592Z,1.57
2018-09-09T18:40:20.941Z,1.60
2018-09-09T18:42:49.304Z,1.67
2018-09-09T18:45:17.695Z,2.47
2018-09-09T18:47:45.967Z,1.60
2018-09-09T18:50:14.256Z,2.10
2018-09-09T18:52:42.539Z,2.10
2018-09-09T18:55:11.043Z,2.40
2018-09-09T18:57:39.314Z,2.50
2018-09-09T19:00:07.653Z,3.30
2018-09-09T19:02:36.071Z,2.33
2018-09-09T19:05:04.481Z,1.67
2018-09-09T19:07:32.781Z,2.40
2018-09-09T19:10:01.063Z,2.50
2018-09-09T19:12:29.321Z,2.93
2018-09-09T19:14:57.619Z,2.73
2018-09-09T19:17:25.911Z,3.50
2018-09-09T19:19:54.196Z,2.97
2018-09-09T19:22:25.037Z,2.60
2018-09-09T19:24:54.040Z,2.10
2018-09-09T19:27:22.315Z,2.30
2018-09-09T19:29:50.567Z,2.30
2018-09-09T19:32:18.880Z,2.60
2018-09-09T19:34:47.140Z,2.50
2018-09-09T19:37:15.499Z,2.33
2018-09-09T19:39:43.808Z,2.43
2018-09-09T19:42:12.056Z,2.23
2018-09-09T19:44:40.325Z,2.40
2018-09-09T19:47:11.228Z,2.90
2018-09-09T19:49:43.652Z,1.80
2018-09-09T19:52:12.577Z,2.53
2018-09-09T19:54:40.825Z,2.00
2018-09-09T19:57:09.098Z,2.80
2018-09-09T19:59:37.380Z,2.30
2018-09-09T20:02:05.664Z,2.53
2018-09-09T20:04:38.002Z,3.13
2018-09-09T20:07:06.356Z,2.73
2018-09-09T20:09:34.680Z,2.70
2018-09-09T20:12:02.948Z,3.60
2018-09-09T20:14:31.249Z,3.57
2018-09-09T20:16:59.558Z,3.27
2018-09-09T20:19:28.847Z,5.90
2018-09-09T20:21:57.289Z,6.30
2018-09-09T20:24:25.596Z,9.43
2018-09-09T20:26:53.930Z,6.67
2018-09-09T20:29:22.211Z,5.90
2018-09-09T20:31:50.489Z,5.20
2018-09-09T20:34:18.727Z,5.10
2018-09-09T20:36:47.041Z,3.80
2018-09-09T20:39:15.282Z,5.67
2018-09-09T20:41:43.498Z,4.50
2018-09-09T20:44:11.813Z,3.00
2018-09-09T20:46:40.106Z,3.33
2018-09-09T20:49:08.464Z,3.33
2018-09-09T20:51:37.060Z,3.57
2018-09-09T20:54:05.499Z,3.20
2018-09-09T20:56:33.777Z,3.33
2018-09-09T20:59:02.963Z,3.70
2018-09-09T21:01:31.279Z,3.47
2018-09-09T21:03:59.947Z,2.97
2018-09-09T21:06:28.858Z,2.93
2018-09-09T21:08:57.568Z,2.50
2018-09-09T21:11:26.015Z,2.73
2018-09-09T21:13:54.957Z,2.60
2018-09-09T21:16:23.428Z,2.63
2018-09-09T21:18:53.016Z,2.67
2018-09-09T21:21:21.394Z,3.10
2018-09-09T21:23:49.940Z,2.77
2018-09-09T21:26:18.680Z,4.30
2018-09-09T21:28:47.494Z,3.17
2018-09-09T21:31:16.066Z,3.03
2018-09-09T21:33:44.385Z,3.27
2018-09-09T21:36:12.775Z,3.37
2018-09-09T21:38:41.034Z,3.00
2018-09-09T21:41:09.484Z,2.77
2018-09-09T21:43:37.751Z,2.83
2018-09-09T21:46:06.070Z,3.13
2018-09-09T21:48:34.318Z,3.37
2018-09-09T21:51:04.640Z,3.47
2018-09-09T21:53:32.955Z,3.43
2018-09-09T21:56:01.300Z,3.70
2018-09-09T21:58:29.531Z,3.97
2018-09-09T22:01:03.298Z,3.00
2018-09-09T22:03:31.543Z,5.00
2018-09-09T22:05:59.801Z,7.87
2018-09-09T22:08:28.131Z,3.87
2018-09-09T22:10:56.481Z,3.67
2018-09-09T22:13:24.714Z,3.93
2018-09-09T22:15:53.307Z,4.30
2018-09-09T22:18:21.671Z,4.63
2018-09-09T22:20:49.912Z,3.63
2018-09-09T22:23:18.191Z,3.70
2018-09-09T22:25:46.499Z,3.87
2018-09-09T22:28:14.796Z,3.70
2018-09-09T22:30:43.083Z,3.53
2018-09-09T22:33:11.325Z,3.53
2018-09-09T22:35:39.620Z,3.70
2018-09-09T22:38:07.914Z,3.57
2018-09-09T22:40:36.219Z,3.33
2018-09-09T22:43:04.767Z,3.20
2018-09-09T22:45:33.027Z,2.97
2018-09-09T22:48:01.317Z,3.67
2018-09-09T22:50:29.596Z,3.43
2018-09-09T22:52:57.862Z,3.40
2018-09-09T22:55:26.140Z,2.90
2018-09-09T22:57:54.403Z,2.93
2018-09-09T23:00:22.685Z,2.80
2018-09-09T23:02:50.954Z,2.77
2018-09-09T23:05:19.224Z,2.83
2018-09-09T23:07:47.510Z,3.47
2018-09-09T23:10:15.782Z,2.93
2018-09-09T23:12:44.092Z,2.80
2018-09-09T23:15:12.343Z,3.00
2018-09-09T23:17:40.619Z,2.40
2018-09-09T23:20:08.906Z,2.63
2018-09-09T23:22:37.165Z,2.63
2018-09-09T23:25:05.552Z,2.77
2018-09-09T23:27:33.862Z,3.03
2018-09-09T23:30:02.119Z,3.00
2018-09-09T23:32:30.383Z,3.07
2018-09-09T23:34:58.696Z,2.63
2018-09-09T23:37:26.969Z,2.40
2018-09-09T23:39:55.250Z,2.90
2018-09-09T23:42:23.516Z,2.80
2018-09-09T23:44:52.194Z,2.80
2018-09-09T23:47:20.446Z,2.43
2018-09-09T23:49:48.722Z,2.53
2018-09-09T23:52:17.090Z,2.40
2018-09-09T23:54:45.537Z,3.00
2018-09-09T23:57:13.779Z,2.90
2018-09-09T23:59:42.027Z,2.70
